Time;durP1;ratioP1;P1;durP2;ratioP2;P2;SDS_P1;SDS_P2;PMS_P1;PMS_P2;Temp;Humidity;BMP_temperature;BMP_pressure;BME280_temperature;BME280_humidity;BME280_pressure;Samples;Min_cycle;Max_cycle;Signal;HPM_P1;HPM_P2
2022/09/25 00:01:07;;;;;;;16.87;15.10;;;11.90;99.90;;;;;;5008394;28;20427;-85
2022/09/25 00:03:33;;;;;;;16.57;14.77;;;11.80;99.90;;;;;;5010005;28;20548;-85
2022/09/25 00:06:07;;;;;;;16.83;15.13;;;11.80;99.90;;;;;;5004959;28;20438;-86
2022/09/25 00:08:34;;;;;;;15.67;14.20;;;11.80;99.90;;;;;;5004241;28;20266;-86
2022/09/25 00:11:12;;;;;;;16.17;14.57;;;11.80;99.90;;;;;;4999063;28;20813;-86
2022/09/25 00:13:39;;;;;;;14.57;13.07;;;11.80;99.90;;;;;;5004173;28;20445;-85
2022/09/25 00:16:05;;;;;;;15.70;13.97;;;11.70;99.90;;;;;;5002633;28;20470;-86
2022/09/25 00:21:16;;;;;;;29.70;12.80;;;11.60;99.90;;;;;;5009205;28;20434;-86
2022/09/25 00:23:43;;;;;;;17.80;11.10;;;11.60;99.90;;;;;;4999704;28;20815;-85
2022/09/25 00:26:12;;;;;;;142.47;15.97;;;11.50;99.90;;;;;;5005624;28;20466;-86
2022/09/25 00:28:38;;;;;;;23.13;11.40;;;11.40;99.90;;;;;;5000335;28;20448;-85
2022/09/25 00:31:06;;;;;;;15.30;10.40;;;11.40;99.90;;;;;;4996846;28;20508;-87
2022/09/25 00:33:33;;;;;;;18.30;10.70;;;11.40;99.90;;;;;;5007852;28;20453;-85
2022/09/25 00:36:04;;;;;;;144.70;16.27;;;11.30;99.90;;;;;;5001852;28;20443;-84
2022/09/25 00:38:30;;;;;;;11.73;9.80;;;11.20;99.90;;;;;;4999030;28;20498;-85
2022/09/25 00:40:56;;;;;;;14.83;9.90;;;11.10;99.90;;;;;;5006848;28;20431;-85
2022/09/25 00:43:37;;;;;;;12.23;8.70;;;11.20;99.90;;;;;;5002083;28;20956;-85
2022/09/25 00:46:15;;;;;;;26.70;10.23;;;11.20;99.90;;;;;;5001578;28;20451;-85
2022/09/25 00:49:10;;;;;;;36.70;10.13;;;11.20;99.90;;;;;;5009595;28;20795;-86
2022/09/25 00:51:44;;;;;;;49.90;10.60;;;11.20;99.90;;;;;;4993167;28;20439;-85
2022/09/25 00:54:19;;;;;;;46.60;8.63;;;11.10;99.90;;;;;;5005846;28;20443;-86
2022/09/25 00:56:48;;;;;;;11.03;7.47;;;10.90;99.90;;;;;;4999850;28;20467;-87
2022/09/25 00:59:18;;;;;;;38.40;9.80;;;10.90;99.90;;;;;;5006778;28;20447;-86
2022/09/25 01:01:45;;;;;;;75.07;11.70;;;10.90;99.90;;;;;;5001750;28;20980;-86
2022/09/25 01:04:11;;;;;;;48.57;11.97;;;10.90;99.90;;;;;;5007031;28;20478;-85
2022/09/25 01:06:37;;;;;;;35.30;10.60;;;10.90;99.90;;;;;;5003425;28;20439;-84
2022/09/25 01:09:03;;;;;;;96.57;14.00;;;10.90;99.90;;;;;;5001187;28;20434;-85
2022/09/25 01:11:29;;;;;;;21.57;10.60;;;11.00;99.90;;;;;;4999800;28;20897;-85
2022/09/25 01:13:58;;;;;;;26.00;12.40;;;11.00;99.90;;;;;;5005676;28;20184;-85
2022/09/25 01:16:55;;;;;;;27.30;11.20;;;11.10;99.90;;;;;;5004863;28;20469;-85
2022/09/25 01:19:39;;;;;;;29.50;10.13;;;11.20;99.90;;;;;;5009759;28;20469;-85
2022/09/25 01:22:25;;;;;;;49.10;11.20;;;11.20;99.90;;;;;;5002258;28;20508;-85
2022/09/25 01:25:27;;;;;;;17.80;10.60;;;11.20;99.90;;;;;;5006825;28;20458;-85
2022/09/25 01:28:23;;;;;;;37.03;11.83;;;11.30;99.90;;;;;;5018160;28;20435;-85
2022/09/25 01:30:55;;;;;;;13.20;9.37;;;11.30;99.90;;;;;;5003227;28;20528;-85
2022/09/25 01:33:30;;;;;;;28.70;11.43;;;11.30;99.90;;;;;;5005569;28;20949;-85
2022/09/25 01:36:05;;;;;;;43.50;12.07;;;11.30;99.90;;;;;;5007117;28;20533;-84
2022/09/25 01:38:37;;;;;;;61.37;13.47;;;11.30;99.90;;;;;;5004480;28;20947;-84
2022/09/25 01:41:23;;;;;;;37.43;12.83;;;11.40;99.90;;;;;;5006113;28;20469;-84
2022/09/25 01:44:09;;;;;;;44.73;11.70;;;11.30;99.90;;;;;;5005304;28;20457;-84
2022/09/25 01:46:49;;;;;;;30.50;11.77;;;11.30;99.90;;;;;;4994536;28;20500;-85
2022/09/25 01:49:25;;;;;;;27.67;12.00;;;11.30;99.90;;;;;;5004357;28;20794;-85
2022/09/25 01:51:53;;;;;;;24.03;10.47;;;11.30;99.90;;;;;;4999022;28;20974;-85
2022/09/25 01:54:37;;;;;;;23.33;12.40;;;11.30;99.90;;;;;;5010515;28;20455;-85
2022/09/25 01:57:08;;;;;;;25.57;10.90;;;11.40;99.90;;;;;;5003161;28;20569;-85
2022/09/25 01:59:46;;;;;;;27.27;12.57;;;11.30;99.90;;;;;;5000496;28;20446;-86
2022/09/25 02:02:15;;;;;;;15.97;11.30;;;11.30;99.90;;;;;;5000166;28;20444;-86
2022/09/25 02:04:48;;;;;;;22.03;10.80;;;11.40;99.90;;;;;;5003318;28;20447;-85
2022/09/25 02:07:21;;;;;;;20.70;12.20;;;11.30;99.90;;;;;;5005909;28;20493;-85
2022/09/25 02:09:53;;;;;;;26.13;11.40;;;11.40;99.90;;;;;;5003538;28;20856;-86
2022/09/25 02:12:25;;;;;;;15.10;11.53;;;11.40;99.90;;;;;;5008478;28;20446;-85
2022/09/25 02:15:04;;;;;;;23.10;12.10;;;11.30;99.90;;;;;;5009222;28;20463;-85
2022/09/25 02:20:41;;;;;;;17.53;11.20;;;11.30;99.90;;;;;;5012557;28;20446;-87
2022/09/25 02:23:10;;;;;;;12.30;10.20;;;11.20;99.90;;;;;;5010344;28;20455;-85
2022/09/25 02:25:56;;;;;;;21.47;12.37;;;11.20;99.90;;;;;;5026869;28;20435;-85
2022/09/25 02:28:22;;;;;;;12.40;10.20;;;11.20;99.90;;;;;;5008325;28;20467;-85
2022/09/25 02:30:50;;;;;;;17.97;11.50;;;11.30;99.90;;;;;;5014765;28;20462;-85
2022/09/25 02:33:16;;;;;;;15.70;11.57;;;11.30;99.90;;;;;;5012084;28;20834;-86
2022/09/25 02:35:41;;;;;;;23.10;12.23;;;11.30;99.90;;;;;;5011123;28;20520;-86
2022/09/25 02:38:08;;;;;;;15.77;10.87;;;11.30;99.90;;;;;;5012793;28;20545;-85
2022/09/25 02:40:43;;;;;;;26.03;11.77;;;11.30;99.90;;;;;;5010983;28;20192;-86
2022/09/25 02:43:27;;;;;;;15.63;11.33;;;11.40;99.90;;;;;;5002446;28;20435;-86
2022/09/25 02:46:08;;;;;;;25.53;11.00;;;11.40;99.90;;;;;;5011801;28;20533;-86
2022/09/25 02:48:53;;;;;;;16.80;11.07;;;11.40;99.90;;;;;;5015792;28;20963;-85
2022/09/25 02:51:24;;;;;;;17.77;11.37;;;11.40;99.90;;;;;;5014238;28;20504;-85
2022/09/25 02:54:00;;;;;;;18.07;11.70;;;11.40;99.90;;;;;;5029115;28;20445;-85
2022/09/25 02:56:32;;;;;;;14.27;11.00;;;11.50;99.90;;;;;;5011022;28;20524;-85
2022/09/25 02:59:09;;;;;;;28.80;12.60;;;11.40;99.90;;;;;;5012322;28;20489;-86
2022/09/25 03:01:38;;;;;;;16.10;11.40;;;11.40;99.90;;;;;;5009144;28;20441;-86
2022/09/25 03:04:05;;;;;;;44.37;13.00;;;11.50;99.90;;;;;;5012988;28;20443;-86
2022/09/25 03:06:31;;;;;;;19.63;11.77;;;11.40;99.90;;;;;;5029315;28;20965;-86
2022/09/25 03:08:58;;;;;;;21.93;11.93;;;11.40;99.90;;;;;;5010809;28;20439;-86
2022/09/25 03:11:28;;;;;;;29.20;12.93;;;11.50;99.90;;;;;;5017326;28;20184;-85
2022/09/25 03:13:59;;;;;;;21.07;12.10;;;11.50;99.90;;;;;;5004981;28;20588;-85
2022/09/25 03:16:43;;;;;;;13.23;11.30;;;11.40;99.90;;;;;;5012967;28;20443;-86
2022/09/25 03:19:09;;;;;;;23.40;12.47;;;11.40;99.90;;;;;;5005685;28;20566;-85
2022/09/25 03:21:35;;;;;;;17.90;12.77;;;11.40;99.90;;;;;;5000033;28;20435;-85
2022/09/25 03:24:00;;;;;;;17.90;12.10;;;11.40;99.90;;;;;;5005853;28;20184;-85
2022/09/25 03:26:26;;;;;;;23.50;12.13;;;11.50;99.90;;;;;;5000339;28;20204;-85
2022/09/25 03:28:52;;;;;;;17.13;11.83;;;11.50;99.90;;;;;;5000913;28;20187;-85
2022/09/25 03:31:19;;;;;;;17.30;11.70;;;11.50;99.90;;;;;;4997740;28;20201;-86
2022/09/25 03:33:45;;;;;;;16.47;13.70;;;11.50;99.90;;;;;;4999480;28;20439;-86
2022/09/25 03:36:17;;;;;;;35.07;12.70;;;11.50;99.90;;;;;;5000961;28;20528;-85
2022/09/25 03:38:44;;;;;;;41.77;14.50;;;11.60;99.90;;;;;;5005738;28;20439;-86
2022/09/25 03:41:12;;;;;;;22.10;11.33;;;11.50;99.90;;;;;;5003211;28;20443;-85
2022/09/25 03:43:40;;;;;;;27.13;13.30;;;11.40;99.90;;;;;;5004565;28;20974;-85
2022/09/25 03:46:09;;;;;;;44.67;13.77;;;11.40;99.90;;;;;;5001150;28;20435;-85
2022/09/25 03:48:35;;;;;;;29.80;12.43;;;11.40;99.90;;;;;;5000581;28;20447;-84
2022/09/25 03:51:01;;;;;;;30.27;11.70;;;11.40;99.90;;;;;;5003133;28;21062;-84
2022/09/25 03:53:31;;;;;;;17.60;12.50;;;11.40;99.90;;;;;;4990940;28;20526;-84
2022/09/25 03:55:56;;;;;;;28.37;13.00;;;11.40;99.90;;;;;;5012144;28;20439;-85
2022/09/25 03:58:22;;;;;;;17.50;12.60;;;11.40;99.90;;;;;;5003847;28;20479;-85
2022/09/25 04:00:47;;;;;;;111.83;17.30;;;11.40;99.90;;;;;;5005621;28;20176;-87
2022/09/25 04:03:14;;;;;;;16.73;12.00;;;11.30;99.90;;;;;;5004369;28;20681;-86
2022/09/25 04:05:41;;;;;;;20.20;11.73;;;11.30;99.90;;;;;;5010880;28;21022;-87
2022/09/25 04:08:07;;;;;;;14.90;12.20;;;11.40;99.90;;;;;;5005318;28;20529;-85
2022/09/25 04:10:37;;;;;;;14.60;12.07;;;11.40;99.90;;;;;;5008770;28;20436;-85
2022/09/25 04:13:04;;;;;;;25.33;12.83;;;11.50;99.90;;;;;;5003202;28;20611;-86
2022/09/25 04:15:30;;;;;;;14.50;12.60;;;11.50;99.90;;;;;;5002737;28;20435;-85
2022/09/25 04:17:57;;;;;;;24.27;13.17;;;11.50;99.90;;;;;;5000607;28;20482;-85
2022/09/25 04:20:22;;;;;;;47.23;13.90;;;11.60;99.90;;;;;;5001880;28;20526;-85
2022/09/25 04:22:48;;;;;;;16.10;10.93;;;11.60;99.90;;;;;;5002882;28;20995;-85
2022/09/25 04:25:20;;;;;;;22.93;12.20;;;11.50;99.90;;;;;;5005895;28;20183;-85
2022/09/25 04:27:45;;;;;;;23.97;12.30;;;11.40;99.90;;;;;;5003705;28;20188;-85
2022/09/25 04:30:12;;;;;;;15.37;12.07;;;11.40;99.90;;;;;;5009398;28;20791;-85
2022/09/25 04:35:21;;;;;;;19.67;11.80;;;11.30;99.90;;;;;;5004979;28;20805;-85
2022/09/25 04:37:47;;;;;;;24.10;12.70;;;11.40;99.90;;;;;;5004349;28;20483;-85
2022/09/25 04:40:12;;;;;;;14.23;11.30;;;11.40;99.90;;;;;;5003615;28;20690;-86
2022/09/25 04:42:38;;;;;;;58.07;14.13;;;11.40;99.90;;;;;;5001370;28;20212;-85
2022/09/25 04:45:05;;;;;;;55.30;13.30;;;11.40;99.90;;;;;;5008152;28;20196;-85
2022/09/25 04:47:30;;;;;;;13.37;11.97;;;11.30;99.90;;;;;;5006304;28;20467;-85
2022/09/25 04:49:56;;;;;;;16.47;12.30;;;11.30;99.90;;;;;;5009675;28;20443;-85
2022/09/25 04:52:22;;;;;;;12.63;11.20;;;11.30;99.90;;;;;;5014796;28;20184;-85
2022/09/25 04:54:48;;;;;;;26.70;12.00;;;11.30;99.90;;;;;;5013655;28;20438;-85
2022/09/25 04:57:18;;;;;;;89.70;15.20;;;11.30;99.90;;;;;;5012149;28;20246;-85
2022/09/25 04:59:44;;;;;;;20.73;12.10;;;11.30;99.90;;;;;;5016985;28;20185;-85
2022/09/25 05:02:11;;;;;;;13.90;12.10;;;11.30;99.90;;;;;;5011076;28;20877;-87
2022/09/25 05:04:37;;;;;;;25.73;13.37;;;11.30;99.90;;;;;;5002498;28;20481;-85
2022/09/25 05:07:03;;;;;;;17.73;12.53;;;11.20;99.90;;;;;;5005695;28;20444;-86
2022/09/25 05:09:29;;;;;;;14.17;12.03;;;11.10;99.90;;;;;;4999842;28;20443;-85
2022/09/25 05:11:55;;;;;;;14.67;12.10;;;11.10;99.90;;;;;;5005895;28;20180;-85
2022/09/25 05:14:21;;;;;;;15.23;13.10;;;11.10;99.90;;;;;;5002957;28;20446;-84
2022/09/25 05:16:47;;;;;;;36.27;14.30;;;11.20;99.90;;;;;;5000197;28;20592;-85
2022/09/25 05:19:31;;;;;;;17.63;11.57;;;11.10;99.90;;;;;;5005526;28;20443;-85
2022/09/25 05:21:57;;;;;;;14.73;10.97;;;11.10;99.90;;;;;;5007325;28;20439;-85
2022/09/25 05:24:23;;;;;;;14.33;11.67;;;11.10;99.90;;;;;;5003473;28;20482;-85
2022/09/25 05:26:48;;;;;;;14.83;10.90;;;11.10;99.90;;;;;;5002344;28;20184;-86
2022/09/25 05:29:14;;;;;;;13.33;11.47;;;11.10;99.90;;;;;;5003702;28;20374;-86
2022/09/25 05:31:41;;;;;;;12.67;11.17;;;11.10;99.90;;;;;;5001796;28;20228;-86
2022/09/25 05:34:08;;;;;;;15.97;10.90;;;11.10;99.90;;;;;;5004261;28;20189;-87
2022/09/25 05:36:33;;;;;;;13.43;11.73;;;11.10;99.90;;;;;;5001593;28;20964;-86
2022/09/25 05:39:00;;;;;;;13.97;11.43;;;11.10;99.90;;;;;;5005879;28;20443;-86
2022/09/25 05:41:25;;;;;;;14.27;12.00;;;11.10;99.90;;;;;;5005548;28;20550;-86
2022/09/25 05:43:51;;;;;;;13.60;10.60;;;11.10;99.90;;;;;;5008483;28;20446;-86
2022/09/25 05:46:17;;;;;;;14.70;12.87;;;11.10;99.90;;;;;;5007769;28;20455;-87
2022/09/25 05:48:42;;;;;;;12.70;11.37;;;11.10;99.90;;;;;;4988437;28;20192;-85
2022/09/25 05:51:08;;;;;;;15.87;11.20;;;11.10;99.90;;;;;;4998420;28;20186;-84
2022/09/25 05:53:34;;;;;;;12.60;10.60;;;11.10;99.90;;;;;;5006023;28;20274;-85
2022/09/25 05:56:02;;;;;;;11.37;10.17;;;11.10;99.90;;;;;;5002908;28;20435;-86
2022/09/25 05:58:33;;;;;;;10.93;9.80;;;11.20;99.90;;;;;;5002244;28;20219;-85
2022/09/25 06:01:05;;;;;;;12.00;10.77;;;11.20;99.90;;;;;;4991059;28;20449;-85
2022/09/25 06:03:30;;;;;;;12.57;11.30;;;11.30;99.90;;;;;;4995953;28;20492;-84
2022/09/25 06:05:59;;;;;;;13.37;11.77;;;11.30;99.90;;;;;;4993424;28;21531;-85
2022/09/25 06:08:29;;;;;;;11.50;10.10;;;11.30;99.90;;;;;;5003089;28;20235;-84
2022/09/25 06:10:55;;;;;;;11.77;10.23;;;11.40;99.90;;;;;;4998996;28;20468;-85
2022/09/25 06:13:23;;;;;;;12.37;11.07;;;11.40;99.90;;;;;;5000132;28;20447;-85
2022/09/25 06:15:51;;;;;;;13.40;11.93;;;11.40;99.90;;;;;;5003299;28;20901;-84
2022/09/25 06:18:19;;;;;;;12.53;10.63;;;11.40;99.90;;;;;;4995869;28;20478;-85
2022/09/25 06:20:45;;;;;;;15.23;12.03;;;11.50;99.90;;;;;;4993484;28;20492;-85
2022/09/25 06:23:11;;;;;;;12.70;11.30;;;11.50;99.90;;;;;;5004482;28;20443;-84
2022/09/25 06:25:36;;;;;;;11.60;10.40;;;11.50;99.90;;;;;;5002452;28;20440;-85
2022/09/25 06:28:03;;;;;;;14.03;11.10;;;11.50;99.90;;;;;;5003033;28;20188;-85
2022/09/25 06:30:33;;;;;;;12.13;10.10;;;11.60;99.90;;;;;;5001941;28;20193;-87
2022/09/25 06:33:09;;;;;;;12.20;10.20;;;11.70;99.90;;;;;;4989312;28;20487;-85
2022/09/25 06:35:39;;;;;;;10.80;9.63;;;11.70;99.90;;;;;;4998765;28;20511;-84
2022/09/25 06:38:05;;;;;;;13.37;11.60;;;11.80;99.90;;;;;;4993362;28;21094;-84
2022/09/25 06:40:31;;;;;;;12.27;10.93;;;11.80;99.90;;;;;;5008447;28;20440;-84
2022/09/25 06:42:58;;;;;;;10.70;9.60;;;11.80;99.90;;;;;;5001573;28;20724;-85
2022/09/25 06:45:25;;;;;;;12.40;9.30;;;11.80;99.90;;;;;;5001765;28;20443;-85
2022/09/25 06:47:56;;;;;;;11.43;10.23;;;12.00;99.90;;;;;;4996567;28;20466;-85
2022/09/25 06:50:24;;;;;;;11.67;10.47;;;12.00;99.90;;;;;;4997214;28;20427;-84
2022/09/25 06:52:50;;;;;;;11.10;9.80;;;12.10;99.90;;;;;;5002070;28;20806;-85
2022/09/25 06:55:15;;;;;;;10.93;9.80;;;12.20;99.90;;;;;;4995031;28;20439;-85
2022/09/25 06:57:41;;;;;;;9.87;8.90;;;12.20;99.90;;;;;;5004554;28;20302;-85
2022/09/25 07:00:07;;;;;;;10.23;9.13;;;12.20;99.90;;;;;;5002673;28;20187;-85
2022/09/25 07:05:17;;;;;;;11.00;9.80;;;12.50;99.90;;;;;;4993905;28;20544;-86
2022/09/25 07:07:44;;;;;;;10.60;9.47;;;12.50;99.90;;;;;;4995197;28;22214;-83
2022/09/25 07:10:09;;;;;;;12.00;10.27;;;12.40;99.90;;;;;;4990044;28;20423;-85
2022/09/25 07:12:35;;;;;;;14.03;11.23;;;12.40;99.90;;;;;;4994073;28;20459;-86
2022/09/25 07:15:11;;;;;;;15.13;11.33;;;12.30;99.90;;;;;;5000805;28;20195;-86
2022/09/25 07:17:43;;;;;;;12.70;11.40;;;12.20;99.90;;;;;;4997866;28;20478;-86
2022/09/25 07:20:15;;;;;;;14.80;11.80;;;12.20;99.90;;;;;;5004467;28;20447;-85
2022/09/25 07:23:02;;;;;;;83.60;75.53;;;12.20;99.90;;;;;;4991356;28;22112;-85
2022/09/25 07:25:30;;;;;;;17.07;11.40;;;12.30;99.90;;;;;;5000981;28;20444;-86
2022/09/25 07:27:57;;;;;;;15.27;11.80;;;12.30;99.90;;;;;;4994774;28;20458;-87
2022/09/25 07:30:29;;;;;;;15.40;12.17;;;12.30;99.90;;;;;;5006626;28;20444;-86
2022/09/25 07:33:10;;;;;;;13.07;11.67;;;12.20;99.90;;;;;;4999583;28;20533;-87
2022/09/25 07:35:39;;;;;;;18.37;14.80;;;12.20;99.90;;;;;;4999039;28;20439;-89
2022/09/25 07:38:06;;;;;;;16.93;13.70;;;12.20;99.90;;;;;;5001281;28;20526;-84
2022/09/25 07:40:32;;;;;;;13.10;11.67;;;12.10;99.90;;;;;;5001122;28;20534;-87
2022/09/25 07:43:01;;;;;;;13.73;11.70;;;12.10;99.90;;;;;;5001327;28;20191;-86
2022/09/25 07:45:28;;;;;;;13.67;11.33;;;12.10;99.90;;;;;;5010346;28;21047;-87
2022/09/25 07:48:01;;;;;;;12.50;11.20;;;12.20;99.90;;;;;;5003513;28;20926;-88
2022/09/25 07:50:32;;;;;;;13.10;11.70;;;12.30;99.90;;;;;;5000897;28;20477;-86
2022/09/25 07:53:11;;;;;;;12.33;11.03;;;12.30;99.90;;;;;;5003314;28;20451;-87
2022/09/25 07:55:36;;;;;;;13.50;11.67;;;12.40;99.90;;;;;;4987501;28;20563;-86
2022/09/25 07:58:02;;;;;;;13.27;11.87;;;12.50;99.90;;;;;;5000304;28;20475;-87
2022/09/25 08:00:27;;;;;;;13.10;11.70;;;12.60;99.90;;;;;;5003168;28;20188;-87
2022/09/25 08:02:58;;;;;;;11.20;10.10;;;12.80;99.90;;;;;;5001068;28;20622;-89
2022/09/25 08:05:26;;;;;;;11.13;10.03;;;13.00;99.90;;;;;;4987489;28;20193;-90
2022/09/25 08:07:53;;;;;;;14.93;11.20;;;13.00;99.90;;;;;;5001018;28;20450;-90
2022/09/25 08:10:19;;;;;;;12.17;10.87;;;13.10;99.90;;;;;;4998802;28;20478;-89
2022/09/25 08:12:45;;;;;;;13.67;12.33;;;13.30;99.90;;;;;;4979910;28;20442;-90
2022/09/25 08:15:13;;;;;;;13.17;11.77;;;13.60;99.90;;;;;;5002505;28;20447;-92
2022/09/25 08:17:54;;;;;;;13.03;11.70;;;13.80;99.90;;;;;;5023238;28;20897;-89
2022/09/25 08:20:22;;;;;;;12.87;11.60;;;13.80;99.90;;;;;;5010113;28;20672;-91
2022/09/25 08:22:52;;;;;;;12.20;11.00;;;14.00;99.90;;;;;;4990491;28;20478;-89
2022/09/25 08:25:17;;;;;;;12.97;11.00;;;14.00;99.90;;;;;;5006315;28;20439;-90
2022/09/25 08:27:43;;;;;;;11.80;10.70;;;14.00;99.90;;;;;;4999756;28;20470;-92
2022/09/25 08:30:12;;;;;;;12.33;11.07;;;14.20;99.90;;;;;;5029129;28;20602;-89
2022/09/25 08:32:38;;;;;;;12.57;10.20;;;14.30;99.90;;;;;;4996058;28;20671;-89
2022/09/25 08:35:04;;;;;;;12.83;10.67;;;14.30;99.90;;;;;;5005279;28;20465;-88
2022/09/25 08:37:31;;;;;;;13.00;11.80;;;14.30;99.90;;;;;;5010522;28;20244;-92
2022/09/25 08:40:00;;;;;;;13.70;12.40;;;14.30;99.90;;;;;;5029964;28;20602;-90
2022/09/25 08:42:31;;;;;;;12.23;11.07;;;14.40;99.90;;;;;;5010211;28;21018;-88
2022/09/25 08:50:36;;;;;;;11.37;10.37;;;14.70;99.90;;;;;;5013113;28;20449;-88
2022/09/25 08:53:07;;;;;;;12.17;11.00;;;14.90;99.90;;;;;;5007942;28;20455;-88
2022/09/25 08:58:32;;;;;;;12.43;11.23;;;15.10;99.90;;;;;;5008002;28;20482;-90
2022/09/25 09:01:03;;;;;;;10.13;9.23;;;15.10;99.90;;;;;;5009453;28;20443;-90
2022/09/25 09:03:31;;;;;;;25.73;23.33;;;15.40;99.90;;;;;;5011674;28;20456;-86
2022/09/25 09:06:02;;;;;;;11.10;10.10;;;15.40;99.90;;;;;;5011488;28;20490;-86
2022/09/25 09:08:30;;;;;;;12.97;11.67;;;15.30;99.90;;;;;;5013570;28;20521;-89
2022/09/25 09:11:07;;;;;;;12.20;11.03;;;15.20;99.90;;;;;;5011766;28;20513;-87
2022/09/25 09:13:53;;;;;;;11.40;10.40;;;15.30;99.90;;;;;;5000658;28;20445;-86
2022/09/25 09:16:25;;;;;;;11.90;10.80;;;15.40;99.90;;;;;;4999188;28;21134;-87
2022/09/25 09:18:52;;;;;;;10.70;9.80;;;15.30;99.90;;;;;;5006615;28;20451;-86
2022/09/25 09:21:32;;;;;;;11.10;10.10;;;15.10;99.90;;;;;;5005875;28;20455;-88
2022/09/25 09:24:04;;;;;;;11.03;10.13;;;15.00;99.90;;;;;;4999875;28;20459;-87
2022/09/25 09:27:13;;;;;;;9.60;8.70;;;15.00;99.90;;;;;;4999005;28;20466;-87
2022/09/25 09:30:19;;;;;;;10.73;9.73;;;15.10;99.90;;;;;;4993314;28;20470;-91
2022/09/25 09:33:03;;;;;;;9.30;8.50;;;15.10;99.90;;;;;;4992480;28;20584;-90
2022/09/25 09:35:45;;;;;;;11.20;10.20;;;15.20;99.90;;;;;;4992070;28;20443;-88
2022/09/25 09:38:48;;;;;;;9.20;8.40;;;15.30;99.90;;;;;;4993809;28;20478;-90
2022/09/25 09:41:55;;;;;;;9.53;8.70;;;15.50;99.90;;;;;;4994186;28;20513;-88
2022/09/25 09:44:41;;;;;;;8.93;8.23;;;15.50;99.90;;;;;;4994027;28;20589;-87
2022/09/25 09:47:41;;;;;;;8.73;8.03;;;15.90;99.90;;;;;;4988554;28;20447;-89
2022/09/25 09:50:24;;;;;;;8.53;7.73;;;16.00;99.90;;;;;;4998085;28;20596;-88
2022/09/25 09:53:04;;;;;;;9.13;8.20;;;16.20;99.90;;;;;;4991690;28;21025;-86
2022/09/25 09:56:04;;;;;;;9.00;8.20;;;16.20;99.90;;;;;;5005995;28;20508;-86
2022/09/25 09:58:54;;;;;;;8.03;7.40;;;16.10;99.90;;;;;;4997380;28;20569;-87
2022/09/25 10:01:25;;;;;;;7.17;6.57;;;16.00;99.90;;;;;;5002609;28;20807;-90
2022/09/25 10:04:18;;;;;;;6.83;6.27;;;16.00;99.90;;;;;;5016345;28;20453;-88
2022/09/25 10:06:57;;;;;;;6.60;6.00;;;16.00;99.90;;;;;;4995409;28;20435;-88
2022/09/25 10:09:25;;;;;;;8.07;7.37;;;16.20;99.90;;;;;;5009743;28;21128;-86
2022/09/25 10:12:24;;;;;;;8.47;7.70;;;16.40;99.90;;;;;;5001016;28;21003;-88
2022/09/25 10:14:51;;;;;;;8.20;7.50;;;16.70;99.90;;;;;;4992028;28;20443;-87
2022/09/25 10:17:17;;;;;;;7.73;7.03;;;16.90;99.90;;;;;;4975088;28;20477;-87
2022/09/25 10:19:56;;;;;;;7.97;7.30;;;16.70;99.90;;;;;;5005165;28;21067;-87
2022/09/25 10:22:43;;;;;;;8.07;7.37;;;16.80;99.90;;;;;;4998235;28;20991;-87
2022/09/25 10:25:09;;;;;;;8.67;7.87;;;16.80;99.90;;;;;;5015791;28;20438;-85
2022/09/25 10:27:36;;;;;;;8.13;7.43;;;17.00;99.90;;;;;;5003045;28;20467;-87
2022/09/25 10:30:08;;;;;;;7.77;6.97;;;16.90;99.90;;;;;;5007932;28;20184;-87
2022/09/25 10:32:55;;;;;;;8.43;7.73;;;16.70;99.90;;;;;;4994239;28;20461;-88
2022/09/25 10:35:40;;;;;;;8.30;7.47;;;16.60;99.90;;;;;;5015424;28;20443;-88
2022/09/25 10:38:53;;;;;;;8.07;7.37;;;16.50;99.90;;;;;;5004084;28;20478;-88
2022/09/25 10:41:20;;;;;;;7.60;7.00;;;15.90;99.90;;;;;;5010985;28;20512;-84
2022/09/25 10:43:54;;;;;;;6.90;6.37;;;15.70;99.90;;;;;;5007708;28;20510;-89
2022/09/25 10:50:09;;;;;;;8.90;8.20;;;15.60;99.90;;;;;;5003974;28;20447;-85
2022/09/25 10:52:08;;;;;;;8.47;7.77;;;15.50;99.90;;;;;;4998650;28;20502;-86
2022/09/25 10:54:35;;;;;;;8.37;7.57;;;15.40;99.90;;;;;;4993938;28;20438;-87
2022/09/25 10:57:12;;;;;;;8.27;7.57;;;15.30;99.90;;;;;;4991027;28;20463;-87
2022/09/25 10:59:47;;;;;;;8.40;7.70;;;15.10;99.90;;;;;;4994307;28;20471;-86
2022/09/25 11:02:28;;;;;;;8.10;7.40;;;15.10;99.90;;;;;;4996195;28;20447;-87
2022/09/25 11:04:56;;;;;;;7.23;6.53;;;15.20;99.90;;;;;;5000548;28;20439;-87
2022/09/25 11:07:27;;;;;;;7.50;6.90;;;15.30;99.90;;;;;;5007731;28;20495;-87
2022/09/25 11:09:56;;;;;;;8.50;7.80;;;15.30;99.90;;;;;;5016103;28;21242;-87
2022/09/25 11:12:25;;;;;;;7.10;6.50;;;15.40;99.90;;;;;;4999347;28;21351;-86
2022/09/25 11:15:12;;;;;;;8.27;6.60;;;15.50;99.90;;;;;;5000286;28;20470;-87
2022/09/25 11:17:43;;;;;;;6.80;6.30;;;15.70;99.90;;;;;;5011556;28;20479;-86
2022/09/25 11:20:18;;;;;;;7.87;6.77;;;15.80;99.90;;;;;;4998690;28;20796;-87
2022/09/25 11:23:02;;;;;;;8.23;7.37;;;15.80;99.90;;;;;;5014100;28;20479;-86
2022/09/25 11:26:19;;;;;;;7.13;6.63;;;15.70;99.90;;;;;;5003673;28;20442;-89
2022/09/25 11:29:00;;;;;;;7.33;6.63;;;15.80;99.90;;;;;;5004083;28;20447;-88
2022/09/25 11:31:34;;;;;;;7.40;6.57;;;16.10;99.90;;;;;;4986639;28;20469;-86
2022/09/25 11:34:33;;;;;;;7.10;6.50;;;16.30;99.90;;;;;;5002447;28;20509;-87
2022/09/25 11:37:29;;;;;;;7.00;6.43;;;16.20;99.90;;;;;;4997680;28;20890;-87
2022/09/25 11:43:16;;;;;;;7.20;6.57;;;16.30;99.90;;;;;;5003410;28;20446;-88
2022/09/25 11:45:52;;;;;;;8.00;7.20;;;16.20;99.90;;;;;;5012540;28;20586;-88
2022/09/25 11:48:31;;;;;;;8.13;7.37;;;15.90;99.90;;;;;;5001844;28;23389;-88
2022/09/25 11:51:04;;;;;;;7.97;7.27;;;15.80;99.90;;;;;;4997766;28;20449;-89
2022/09/25 11:53:48;;;;;;;8.50;7.80;;;15.60;99.90;;;;;;5009098;28;20816;-86
2022/09/25 11:56:32;;;;;;;10.33;8.63;;;15.50;99.90;;;;;;4999787;28;20446;-85
2022/09/25 11:59:24;;;;;;;10.90;9.77;;;15.50;99.90;;;;;;5002042;28;20767;-86
2022/09/25 12:02:11;;;;;;;12.57;11.37;;;15.40;99.90;;;;;;5002125;28;20431;-88
2022/09/25 12:05:01;;;;;;;11.20;10.20;;;15.60;99.90;;;;;;5006620;28;21759;-88
2022/09/25 12:07:41;;;;;;;16.83;15.10;;;15.70;99.90;;;;;;5005731;28;20435;-87
2022/09/25 12:10:11;;;;;;;10.97;9.97;;;15.60;99.90;;;;;;5008001;28;20439;-87
2022/09/25 12:12:58;;;;;;;11.90;10.70;;;15.60;99.90;;;;;;5003972;28;20449;-89
2022/09/25 12:16:03;;;;;;;11.63;10.40;;;15.50;99.90;;;;;;5002383;28;20451;-90
2022/09/25 12:18:48;;;;;;;11.90;10.80;;;15.40;99.90;;;;;;4998772;28;20844;-90
2022/09/25 12:21:33;;;;;;;11.83;10.60;;;15.60;99.90;;;;;;5000375;28;20869;-88
2022/09/25 12:24:33;;;;;;;11.67;10.60;;;15.90;99.90;;;;;;4997119;28;20502;-90
2022/09/25 12:27:08;;;;;;;11.90;10.80;;;16.10;99.90;;;;;;5005669;28;20457;-91
2022/09/25 12:30:12;;;;;;;10.43;9.53;;;16.40;99.90;;;;;;4995149;28;20478;-91
2022/09/25 12:33:01;;;;;;;11.70;10.60;;;16.80;99.90;;;;;;5001947;28;21179;-90
2022/09/25 12:36:07;;;;;;;11.37;10.17;;;17.00;99.90;;;;;;4994966;28;20479;-90
2022/09/25 12:38:54;;;;;;;12.77;11.50;;;16.50;99.90;;;;;;4996926;28;20474;-90
2022/09/25 12:41:42;;;;;;;12.10;10.90;;;16.40;99.90;;;;;;5005697;28;20529;-90
2022/09/25 12:44:48;;;;;;;11.17;10.07;;;16.10;99.90;;;;;;4998942;28;21011;-85
2022/09/25 12:47:36;;;;;;;13.93;12.63;;;15.90;99.90;;;;;;4994048;28;20439;-88
2022/09/25 12:50:19;;;;;;;13.03;11.80;;;15.30;99.90;;;;;;5007055;28;20876;-91
2022/09/25 12:52:54;;;;;;;14.57;13.17;;;14.90;99.90;;;;;;5001093;28;21098;-86
2022/09/25 12:55:41;;;;;;;15.23;13.80;;;14.70;99.90;;;;;;5003305;28;20534;-89
2022/09/25 12:58:25;;;;;;;18.13;16.37;;;14.50;99.90;;;;;;5004969;28;21117;-90
2022/09/25 13:01:00;;;;;;;17.37;15.77;;;14.40;99.90;;;;;;5003643;28;20439;-87
2022/09/25 13:03:42;;;;;;;16.00;14.50;;;14.50;99.90;;;;;;4999945;28;20448;-88
2022/09/25 13:06:18;;;;;;;15.17;13.67;;;14.50;99.90;;;;;;5008615;28;20494;-89
2022/09/25 13:09:06;;;;;;;19.60;15.90;;;14.60;99.90;;;;;;4999399;28;20943;-90
2022/09/25 13:11:46;;;;;;;16.77;15.17;;;14.70;99.90;;;;;;5003130;28;20458;-90
2022/09/25 13:14:40;;;;;;;17.37;15.03;;;14.70;99.90;;;;;;5002330;28;20475;-89
2022/09/25 13:17:11;;;;;;;17.03;15.30;;;14.70;99.90;;;;;;5018913;28;20467;-89
2022/09/25 13:19:36;;;;;;;15.87;14.27;;;14.70;99.90;;;;;;4998742;28;20465;-89
2022/09/25 13:22:11;;;;;;;16.63;14.93;;;14.60;99.90;;;;;;5004294;28;21039;-90
2022/09/25 13:24:42;;;;;;;17.00;15.30;;;14.60;99.90;;;;;;5000394;28;20188;-90
2022/09/25 13:27:55;;;;;;;16.80;14.27;;;14.50;99.90;;;;;;5003245;28;20456;-88
2022/09/25 13:30:24;;;;;;;21.50;16.63;;;14.40;99.90;;;;;;5005401;28;20489;-89